PWSweather.com
Personal Weather Stations
Station Observations
KUCEROV1
Npr Větrníky, VyskovCZ 68201

Npr VětrníkyVyskovCZ 68201

Lat: 49.219314, Lon: 17.009937

Elevation: 1001

Station Type: WH2080

Latest ConditionsUpdated 11:35:00 PM GMT+01:01 Sunday, Jan 19, 2020
Currently Today's Max Today's Min Today's Average
Temperature 34.1°F1.2°C 35.8°F2.1°C 29.8°F-1.2°C 33.0°F0.6°C
Dew Point 32.0°F0.0°C 34.2°F1.2°C 29.1°F-1.6°C 31.7°F-0.2°C
Winds 3.5 mph N5.6 kmh N 4.6 mph -7.4 kmh - - 1.1 mph 1.8 kmh
Wind Gusts 9.2 mph14.8 kmh 9.8 mph15.8 kmh - -
Humidity 92% 98% 92% 95%
Pressure 30.71 in1040.0 mb 30.71 in1040.0 mb 30.34 in1027.4 mb -
Precipitation - 0.38 in9.7 mm - -
Hour Temp Dew Point Humidity Winds Wind Gusts Pressure Precip Precip Rate Daily Precip Total
11:35 PM 34.1°F1.2°C 32.0°F0.0°C 92% 3.5 mph N5.6 kmh N 9.2 mph14.8 kmh 30.71 in1040.0 mb 0.00 in0.0 mm 0.00 in0.0 mm 0.38 in9.7 mm
11:30 PM 34.0°F1.1°C 31.9°F-0.1°C 92% 3.2 mph NE5.1 kmh NE 7.6 mph12.2 kmh 30.71 in1040.0 mb 0.01 in0.3 mm 0.00 in0.0 mm 0.38 in9.7 mm
11:25 PM 34.0°F1.1°C 32.0°F0.0°C 92% 3.5 mph N5.6 kmh N 8.3 mph13.4 kmh 30.71 in1040.0 mb 0.01 in0.3 mm 0.00 in0.0 mm 0.38 in9.7 mm
11:20 PM 34.2°F1.2°C 32.1°F0.1°C 92% 3.8 mph N6.1 kmh N 9.2 mph14.8 kmh 30.70 in1039.6 mb 0.01 in0.3 mm 0.00 in0.0 mm 0.38 in9.7 mm
11:15 PM 34.2°F1.2°C 32.1°F0.1°C 92% 3.5 mph E5.6 kmh E 6.9 mph11.1 kmh 30.70 in1039.6 mb 0.01 in0.3 mm 0.00 in0.0 mm 0.38 in9.7 mm
11:10 PM 34.2°F1.2°C 32.1°F0.1°C 92% 4.0 mph NNE6.4 kmh NNE 9.2 mph14.8 kmh 30.70 in1039.6 mb 0.01 in0.3 mm 0.00 in0.0 mm 0.38 in9.7 mm
11:05 PM 34.2°F1.2°C 32.1°F0.1°C 92% 4.5 mph NW7.2 kmh NW 9.8 mph15.8 kmh 30.70 in1039.6 mb 0.01 in0.3 mm 0.00 in0.0 mm 0.38 in9.7 mm
11:00 PM 34.2°F1.2°C 32.1°F0.1°C 92% 4.4 mph NE7.1 kmh NE 9.8 mph15.8 kmh 30.70 in1039.6 mb 0.01 in0.3 mm 0.00 in0.0 mm 0.38 in9.7 mm
10:55 PM 34.2°F1.2°C 32.1°F0.1°C 92% 3.8 mph NE6.1 kmh NE 8.3 mph13.4 kmh 30.70 in1039.6 mb 0.02 in0.5 mm 0.00 in0.0 mm 0.38 in9.7 mm
10:50 PM 34.2°F1.2°C 32.1°F0.1°C 92% 3.8 mph ENE6.1 kmh ENE 6.9 mph11.1 kmh 30.70 in1039.6 mb 0.02 in0.5 mm 0.00 in0.0 mm 0.38 in9.7 mm
10:45 PM 34.2°F1.2°C 32.1°F0.1°C 92% 4.0 mph E6.4 kmh E 9.2 mph14.8 kmh 30.70 in1039.6 mb 0.02 in0.5 mm 0.00 in0.0 mm 0.38 in9.7 mm
10:40 PM 34.2°F1.2°C 32.1°F0.1°C 92% 3.1 mph NE5.0 kmh NE 7.6 mph12.2 kmh 30.69 in1039.3 mb 0.02 in0.5 mm 0.00 in0.0 mm 0.38 in9.7 mm
10:35 PM 34.2°F1.2°C 32.1°F0.1°C 92% 4.1 mph N6.6 kmh N 9.8 mph15.8 kmh 30.69 in1039.3 mb 0.02 in0.5 mm 0.12 in3.0 mm 0.38 in9.7 mm
10:30 PM 34.2°F1.2°C 32.1°F0.1°C 92% 4.6 mph N7.4 kmh N 9.2 mph14.8 kmh 30.69 in1039.3 mb 0.01 in0.3 mm 0.00 in0.0 mm 0.37 in9.4 mm
10:25 PM 34.2°F1.2°C 32.1°F0.1°C 92% 3.8 mph WNW6.1 kmh WNW 8.3 mph13.4 kmh 30.68 in1038.9 mb 0.01 in0.3 mm 0.00 in0.0 mm 0.37 in9.4 mm
10:20 PM 34.2°F1.2°C 32.1°F0.1°C 92% 3.1 mph E5.0 kmh E 8.3 mph13.4 kmh 30.68 in1038.9 mb 0.01 in0.3 mm 0.00 in0.0 mm 0.37 in9.4 mm
10:15 PM 34.2°F1.2°C 32.1°F0.1°C 92% 2.4 mph WNW3.9 kmh WNW 9.8 mph15.8 kmh 30.68 in1038.9 mb 0.01 in0.3 mm 0.00 in0.0 mm 0.37 in9.4 mm
10:10 PM 34.2°F1.2°C 32.1°F0.1°C 92% 3.9 mph 6.3 kmh 9.2 mph14.8 kmh 30.68 in1038.9 mb 0.01 in0.3 mm 0.00 in0.0 mm 0.37 in9.4 mm
10:05 PM 34.2°F1.2°C 32.1°F0.1°C 92% 3.8 mph 6.1 kmh 6.9 mph11.1 kmh 30.68 in1038.9 mb 0.01 in0.3 mm 0.00 in0.0 mm 0.37 in9.4 mm
10:00 PM 34.2°F1.2°C 32.1°F0.1°C 92% 3.9 mph N6.3 kmh N 6.9 mph11.1 kmh 30.68 in1038.9 mb 0.02 in0.5 mm 0.01 in0.3 mm 0.37 in9.4 mm
09:55 PM 34.2°F1.2°C 32.1°F0.1°C 92% 2.8 mph N4.5 kmh N 9.8 mph15.8 kmh 30.68 in1038.9 mb 0.01 in0.3 mm 0.00 in0.0 mm 0.35 in8.9 mm
09:50 PM 34.2°F1.2°C 32.4°F0.2°C 93% 2.4 mph SW3.9 kmh SW 7.6 mph12.2 kmh 30.68 in1038.9 mb 0.01 in0.3 mm 0.00 in0.0 mm 0.35 in8.9 mm
09:45 PM 34.2°F1.2°C 32.4°F0.2°C 93% 2.3 mph NNE3.7 kmh NNE 6.0 mph9.7 kmh 30.68 in1038.9 mb 0.01 in0.3 mm 0.00 in0.0 mm 0.35 in8.9 mm
09:40 PM 34.0°F1.1°C 32.1°F0.1°C 93% 2.0 mph NE3.2 kmh NE 3.8 mph6.1 kmh 30.68 in1038.9 mb 0.01 in0.3 mm 0.00 in0.0 mm 0.35 in8.9 mm
09:35 PM 34.0°F1.1°C 31.9°F-0.1°C 92% 1.3 mph N2.1 kmh N 3.1 mph5.0 kmh 30.67 in1038.6 mb 0.01 in0.3 mm 0.00 in0.0 mm 0.35 in8.9 mm
09:30 PM 34.0°F1.1°C 31.9°F-0.1°C 92% 2.2 mph NW3.5 kmh NW 4.5 mph7.2 kmh 30.67 in1038.6 mb 0.01 in0.3 mm 0.00 in0.0 mm 0.35 in8.9 mm
09:25 PM 34.0°F1.1°C 31.9°F-0.1°C 92% 1.9 mph NE3.1 kmh NE 4.5 mph7.2 kmh 30.67 in1038.6 mb 0.01 in0.3 mm 0.00 in0.0 mm 0.35 in8.9 mm
09:20 PM 34.0°F1.1°C 31.9°F-0.1°C 92% 1.0 mph N1.6 kmh N 3.1 mph5.0 kmh 30.67 in1038.6 mb 0.01 in0.3 mm 0.00 in0.0 mm 0.35 in8.9 mm
09:15 PM 34.0°F1.1°C 31.9°F-0.1°C 92% 0.6 mph N1.0 kmh N 3.1 mph5.0 kmh 30.67 in1038.6 mb 0.01 in0.3 mm 0.00 in0.0 mm 0.35 in8.9 mm
09:10 PM 33.8°F1.0°C 31.8°F-0.1°C 92% 1.5 mph N2.4 kmh N 3.8 mph6.1 kmh 30.67 in1038.6 mb 0.01 in0.3 mm 0.00 in0.0 mm 0.35 in8.9 mm
09:05 PM 33.8°F1.0°C 31.7°F-0.2°C 92% 0.6 mph NE1.0 kmh NE 3.8 mph6.1 kmh 30.66 in1038.3 mb 0.01 in0.3 mm 0.12 in3.0 mm 0.35 in8.9 mm
09:00 PM 33.8°F1.0°C 31.7°F-0.2°C 92% 0.9 mph E1.4 kmh E 3.8 mph6.1 kmh 30.66 in1038.3 mb 0.00 in0.0 mm 0.00 in0.0 mm 0.34 in8.6 mm
08:55 PM 33.8°F1.0°C 31.7°F-0.2°C 92% 1.1 mph NNW1.8 kmh NNW 4.5 mph7.2 kmh 30.66 in1038.3 mb 0.00 in0.0 mm 0.00 in0.0 mm 0.34 in8.6 mm
08:50 PM 33.8°F1.0°C 31.7°F-0.2°C 92% 0.3 mph NNE0.5 kmh NNE 1.6 mph2.6 kmh 30.66 in1038.3 mb 0.00 in0.0 mm 0.00 in0.0 mm 0.34 in8.6 mm
08:45 PM 33.9°F1.1°C 31.8°F-0.1°C 92% Calm Calm -- 30.66 in1038.3 mb 0.00 in0.0 mm 0.00 in0.0 mm 0.34 in8.6 mm
08:40 PM 34.0°F1.1°C 31.9°F-0.1°C 92% Calm Calm 1.6 mph2.6 kmh 30.66 in1038.3 mb 0.01 in0.3 mm 0.00 in0.0 mm 0.34 in8.6 mm
08:35 PM 34.0°F1.1°C 31.9°F-0.1°C 92% Calm Calm -- 30.66 in1038.3 mb 0.01 in0.3 mm 0.00 in0.0 mm 0.34 in8.6 mm
08:30 PM 34.1°F1.2°C 32.0°F0.0°C 92% Calm Calm -- 30.65 in1037.9 mb 0.01 in0.3 mm 0.00 in0.0 mm 0.34 in8.6 mm
08:25 PM 34.2°F1.2°C 32.1°F0.1°C 92% Calm Calm -- 30.65 in1037.9 mb 0.01 in0.3 mm 0.00 in0.0 mm 0.34 in8.6 mm
08:20 PM 34.2°F1.2°C 32.1°F0.1°C 92% Calm Calm -- 30.65 in1037.9 mb 0.01 in0.3 mm 0.00 in0.0 mm 0.34 in8.6 mm
08:15 PM 34.3°F1.3°C 32.3°F0.2°C 92% Calm Calm -- 30.64 in1037.6 mb 0.01 in0.3 mm 0.00 in0.0 mm 0.34 in8.6 mm
08:10 PM 34.5°F1.4°C 32.4°F0.2°C 92% Calm Calm 0.7 mph1.1 kmh 30.64 in1037.6 mb 0.01 in0.3 mm 0.00 in0.0 mm 0.34 in8.6 mm
08:05 PM 34.5°F1.4°C 32.4°F0.2°C 92% Calm Calm 0.7 mph1.1 kmh 30.64 in1037.6 mb 0.01 in0.3 mm 0.00 in0.0 mm 0.34 in8.6 mm
08:00 PM 34.4°F1.3°C 32.3°F0.2°C 92% Calm Calm 0.7 mph1.1 kmh 30.64 in1037.6 mb 0.01 in0.3 mm 0.00 in0.0 mm 0.34 in8.6 mm
07:55 PM 34.2°F1.2°C 32.1°F0.1°C 92% 1.3 mph 2.1 kmh 3.8 mph6.1 kmh 30.64 in1037.6 mb 0.02 in0.5 mm 0.00 in0.0 mm 0.34 in8.6 mm
07:50 PM 34.2°F1.2°C 32.1°F0.1°C 92% 1.1 mph N1.8 kmh N 4.5 mph7.2 kmh 30.64 in1037.6 mb 0.02 in0.5 mm 0.00 in0.0 mm 0.34 in8.6 mm
07:45 PM 34.2°F1.2°C 32.1°F0.1°C 92% 1.0 mph NE1.6 kmh NE 3.1 mph5.0 kmh 30.63 in1037.3 mb 0.02 in0.5 mm 0.12 in3.0 mm 0.34 in8.6 mm
07:40 PM 34.2°F1.2°C 32.1°F0.1°C 92% 1.4 mph N2.3 kmh N 3.8 mph6.1 kmh 30.63 in1037.3 mb 0.01 in0.3 mm 0.00 in0.0 mm 0.33 in8.4 mm
07:35 PM 34.2°F1.2°C 32.1°F0.1°C 92% 0.8 mph N1.3 kmh N 4.5 mph7.2 kmh 30.63 in1037.3 mb 0.01 in0.3 mm 0.00 in0.0 mm 0.33 in8.4 mm
07:30 PM 34.2°F1.2°C 32.1°F0.1°C 92% 2.1 mph ESE3.4 kmh ESE 4.5 mph7.2 kmh 30.63 in1037.3 mb 0.01 in0.3 mm 0.00 in0.0 mm 0.33 in8.4 mm
07:25 PM 34.2°F1.2°C 32.1°F0.1°C 92% 1.0 mph NNW1.6 kmh NNW 4.5 mph7.2 kmh 30.63 in1037.3 mb 0.01 in0.3 mm 0.00 in0.0 mm 0.33 in8.4 mm
07:20 PM 34.2°F1.2°C 32.1°F0.1°C 92% 1.5 mph NE2.4 kmh NE 6.0 mph9.7 kmh 30.63 in1037.3 mb 0.02 in0.5 mm 0.00 in0.0 mm 0.33 in8.4 mm
07:15 PM 34.2°F1.2°C 32.1°F0.1°C 92% 2.9 mph NNW4.7 kmh NNW 5.4 mph8.7 kmh 30.63 in1037.3 mb 0.02 in0.5 mm 0.00 in0.0 mm 0.33 in8.4 mm
07:10 PM 34.2°F1.2°C 32.1°F0.1°C 92% 2.5 mph NE4.0 kmh NE 5.4 mph8.7 kmh 30.63 in1037.3 mb 0.02 in0.5 mm 0.00 in0.0 mm 0.33 in8.4 mm
07:05 PM 34.3°F1.3°C 32.2°F0.1°C 92% 2.8 mph NE4.5 kmh NE 7.6 mph12.2 kmh 30.62 in1036.9 mb 0.02 in0.5 mm 0.00 in0.0 mm 0.33 in8.4 mm
07:00 PM 34.3°F1.3°C 32.3°F0.2°C 92% 2.2 mph WNW3.5 kmh WNW 6.9 mph11.1 kmh 30.62 in1036.9 mb 0.02 in0.5 mm 0.01 in0.3 mm 0.33 in8.4 mm
06:55 PM 34.3°F1.3°C 32.3°F0.2°C 92% 2.5 mph NE4.0 kmh NE 7.6 mph12.2 kmh 30.62 in1036.9 mb 0.01 in0.3 mm 0.00 in0.0 mm 0.32 in8.1 mm
06:50 PM 34.3°F1.3°C 32.3°F0.2°C 92% 2.5 mph N4.0 kmh N 6.9 mph11.1 kmh 30.62 in1036.9 mb 0.01 in0.3 mm 0.00 in0.0 mm 0.32 in8.1 mm
06:45 PM 34.3°F1.3°C 32.3°F0.2°C 92% 3.2 mph NE5.1 kmh NE 6.9 mph11.1 kmh 30.61 in1036.6 mb 0.01 in0.3 mm 0.00 in0.0 mm 0.32 in8.1 mm
06:40 PM 34.3°F1.3°C 32.4°F0.2°C 93% 2.2 mph N3.5 kmh N 6.9 mph11.1 kmh 30.61 in1036.6 mb 0.01 in0.3 mm 0.00 in0.0 mm 0.32 in8.1 mm
06:35 PM 34.3°F1.3°C 32.2°F0.1°C 92% 1.9 mph NNE3.1 kmh NNE 5.4 mph8.7 kmh 30.61 in1036.6 mb 0.01 in0.3 mm 0.00 in0.0 mm 0.32 in8.1 mm
06:30 PM 34.2°F1.2°C 32.1°F0.1°C 92% 1.9 mph NE3.1 kmh NE 4.5 mph7.2 kmh 30.61 in1036.6 mb 0.02 in0.5 mm 0.00 in0.0 mm 0.32 in8.1 mm
06:25 PM 34.2°F1.2°C 32.1°F0.1°C 92% 2.7 mph N4.3 kmh N 5.4 mph8.7 kmh 30.61 in1036.6 mb 0.02 in0.5 mm 0.12 in3.0 mm 0.32 in8.1 mm
06:20 PM 34.2°F1.2°C 32.1°F0.1°C 92% 2.0 mph N3.2 kmh N 5.4 mph8.7 kmh 30.61 in1036.6 mb 0.01 in0.3 mm 0.00 in0.0 mm 0.31 in7.9 mm
06:15 PM 34.2°F1.2°C 32.1°F0.1°C 92% 2.4 mph NNE3.9 kmh NNE 5.4 mph8.7 kmh 30.60 in1036.2 mb 0.01 in0.3 mm 0.00 in0.0 mm 0.31 in7.9 mm
06:10 PM 34.2°F1.2°C 32.3°F0.2°C 93% 0.6 mph NE1.0 kmh NE 3.1 mph5.0 kmh 30.60 in1036.2 mb 0.01 in0.3 mm 0.00 in0.0 mm 0.31 in7.9 mm
06:05 PM 34.2°F1.2°C 32.4°F0.2°C 93% Calm Calm 1.6 mph2.6 kmh 30.60 in1036.2 mb 0.01 in0.3 mm 0.00 in0.0 mm 0.31 in7.9 mm
06:00 PM 34.2°F1.2°C 32.4°F0.2°C 93% 0.2 mph N0.3 kmh N 2.2 mph3.5 kmh 30.60 in1036.2 mb 0.01 in0.3 mm 0.00 in0.0 mm 0.31 in7.9 mm
05:55 PM 34.2°F1.2°C 32.4°F0.2°C 93% 1.0 mph NW1.6 kmh NW 3.1 mph5.0 kmh 30.60 in1036.2 mb 0.01 in0.3 mm 0.00 in0.0 mm 0.31 in7.9 mm
05:50 PM 34.3°F1.3°C 32.5°F0.3°C 93% 1.1 mph NNW1.8 kmh NNW 3.1 mph5.0 kmh 30.59 in1035.9 mb 0.02 in0.5 mm 0.00 in0.0 mm 0.31 in7.9 mm
05:45 PM 34.3°F1.3°C 32.5°F0.3°C 93% 1.3 mph N2.1 kmh N 3.8 mph6.1 kmh 30.59 in1035.9 mb 0.02 in0.5 mm 0.00 in0.0 mm 0.31 in7.9 mm
05:40 PM 34.3°F1.3°C 32.5°F0.3°C 93% 1.6 mph NW2.6 kmh NW 4.5 mph7.2 kmh 30.59 in1035.9 mb 0.02 in0.5 mm 0.00 in0.0 mm 0.31 in7.9 mm
05:35 PM 34.3°F1.3°C 32.5°F0.3°C 93% 1.3 mph WNW2.1 kmh WNW 3.1 mph5.0 kmh 30.59 in1035.9 mb 0.02 in0.5 mm 0.12 in3.0 mm 0.31 in7.9 mm
05:30 PM 34.3°F1.3°C 32.5°F0.3°C 93% 1.4 mph NW2.3 kmh NW 6.0 mph9.7 kmh 30.59 in1035.9 mb 0.01 in0.3 mm 0.00 in0.0 mm 0.30 in7.6 mm
05:25 PM 34.5°F1.4°C 32.7°F0.4°C 93% 1.6 mph NW2.6 kmh NW 4.5 mph7.2 kmh 30.59 in1035.9 mb 0.01 in0.3 mm 0.00 in0.0 mm 0.30 in7.6 mm
05:20 PM 34.5°F1.4°C 32.7°F0.4°C 93% 1.8 mph W2.9 kmh W 4.5 mph7.2 kmh 30.58 in1035.6 mb 0.01 in0.3 mm 0.00 in0.0 mm 0.30 in7.6 mm
05:15 PM 34.3°F1.3°C 32.4°F0.2°C 93% 1.4 mph 2.3 kmh 3.8 mph6.1 kmh 30.58 in1035.6 mb 0.01 in0.3 mm 0.00 in0.0 mm 0.30 in7.6 mm
05:10 PM 34.2°F1.2°C 32.4°F0.2°C 93% 1.3 mph N2.1 kmh N 4.5 mph7.2 kmh 30.58 in1035.6 mb 0.02 in0.5 mm 0.00 in0.0 mm 0.30 in7.6 mm
05:05 PM 34.2°F1.2°C 32.4°F0.2°C 93% 0.5 mph WNW0.8 kmh WNW 3.1 mph5.0 kmh 30.58 in1035.6 mb 0.02 in0.5 mm 0.00 in0.0 mm 0.30 in7.6 mm
05:00 PM 34.2°F1.2°C 32.4°F0.2°C 93% 0.7 mph N1.1 kmh N 2.2 mph3.5 kmh 30.57 in1035.2 mb 0.02 in0.5 mm 0.00 in0.0 mm 0.30 in7.6 mm
04:55 PM 34.2°F1.2°C 32.4°F0.2°C 93% 0.7 mph NNW1.1 kmh NNW 3.1 mph5.0 kmh 30.57 in1035.2 mb 0.02 in0.5 mm 0.12 in3.0 mm 0.30 in7.6 mm
04:50 PM 34.2°F1.2°C 32.4°F0.2°C 93% 0.6 mph S1.0 kmh S 2.2 mph3.5 kmh 30.57 in1035.2 mb 0.01 in0.3 mm 0.00 in0.0 mm 0.28 in7.1 mm
04:45 PM 34.3°F1.3°C 32.5°F0.3°C 93% 1.4 mph WNW2.3 kmh WNW 3.8 mph6.1 kmh 30.56 in1034.9 mb 0.02 in0.5 mm 0.00 in0.0 mm 0.28 in7.1 mm
04:40 PM 34.3°F1.3°C 32.5°F0.3°C 93% 1.4 mph NNW2.3 kmh NNW 3.8 mph6.1 kmh 30.56 in1034.9 mb 0.02 in0.5 mm 0.00 in0.0 mm 0.28 in7.1 mm
04:35 PM 34.3°F1.3°C 32.5°F0.3°C 93% 1.4 mph 2.3 kmh 4.5 mph7.2 kmh 30.56 in1034.9 mb 0.02 in0.5 mm 0.00 in0.0 mm 0.28 in7.1 mm
04:30 PM 34.3°F1.3°C 32.5°F0.3°C 93% 1.1 mph NE1.8 kmh NE 3.1 mph5.0 kmh 30.55 in1034.5 mb 0.02 in0.5 mm 0.00 in0.0 mm 0.28 in7.1 mm
04:25 PM 34.3°F1.3°C 32.5°F0.3°C 93% Calm Calm 0.7 mph1.1 kmh 30.55 in1034.5 mb 0.04 in1.0 mm 0.00 in0.0 mm 0.28 in7.1 mm
04:20 PM 34.3°F1.3°C 32.5°F0.3°C 93% 1.2 mph NW1.9 kmh NW 3.1 mph5.0 kmh 30.55 in1034.5 mb 0.04 in1.0 mm 0.00 in0.0 mm 0.28 in7.1 mm
04:15 PM 34.5°F1.4°C 32.7°F0.4°C 93% 1.2 mph E1.9 kmh E 3.8 mph6.1 kmh 30.55 in1034.5 mb 0.05 in1.3 mm 0.12 in3.0 mm 0.28 in7.1 mm
04:10 PM 34.5°F1.4°C 32.7°F0.4°C 93% 1.5 mph N2.4 kmh N 3.8 mph6.1 kmh 30.54 in1034.2 mb 0.04 in1.0 mm 0.00 in0.0 mm 0.27 in6.9 mm
04:05 PM 34.5°F1.4°C 32.7°F0.4°C 93% 1.6 mph 2.6 kmh 3.1 mph5.0 kmh 30.54 in1034.2 mb 0.05 in1.3 mm 0.00 in0.0 mm 0.27 in6.9 mm
04:00 PM 34.7°F1.5°C 32.9°F0.5°C 93% 1.9 mph N3.1 kmh N 4.5 mph7.2 kmh 30.54 in1034.2 mb 0.05 in1.3 mm 0.00 in0.0 mm 0.27 in6.9 mm
03:55 PM 34.7°F1.5°C 32.9°F0.5°C 93% 1.4 mph NNW2.3 kmh NNW 6.0 mph9.7 kmh 30.54 in1034.2 mb 0.06 in1.5 mm 0.00 in0.0 mm 0.27 in6.9 mm
03:50 PM 34.8°F1.6°C 33.0°F0.6°C 93% 1.1 mph N1.8 kmh N 3.1 mph5.0 kmh 30.54 in1034.2 mb 0.06 in1.5 mm 0.12 in3.0 mm 0.27 in6.9 mm
03:45 PM 34.9°F1.6°C 33.1°F0.6°C 93% 0.6 mph NE1.0 kmh NE 2.2 mph3.5 kmh 30.53 in1033.9 mb 0.05 in1.3 mm 0.00 in0.0 mm 0.26 in6.6 mm
03:40 PM 34.9°F1.6°C 33.1°F0.6°C 93% 1.8 mph N2.9 kmh N 4.5 mph7.2 kmh 30.53 in1033.9 mb 0.06 in1.5 mm 0.00 in0.0 mm 0.26 in6.6 mm
03:35 PM 35.1°F1.7°C 33.2°F0.7°C 93% 1.6 mph N2.6 kmh N 5.4 mph8.7 kmh 30.53 in1033.9 mb 0.07 in1.8 mm 0.00 in0.0 mm 0.26 in6.6 mm
03:30 PM 35.1°F1.7°C 33.3°F0.7°C 93% 1.8 mph N2.9 kmh N 5.4 mph8.7 kmh 30.53 in1033.9 mb 0.07 in1.8 mm 0.00 in0.0 mm 0.26 in6.6 mm
03:25 PM 35.0°F1.7°C 33.2°F0.7°C 93% 2.0 mph N3.2 kmh N 4.5 mph7.2 kmh 30.53 in1033.9 mb 0.07 in1.8 mm 0.00 in0.0 mm 0.25 in6.4 mm
03:20 PM 34.9°F1.6°C 33.1°F0.6°C 93% 3.2 mph NW5.1 kmh NW 6.9 mph11.1 kmh 30.53 in1033.9 mb 0.08 in2.0 mm 0.12 in3.0 mm 0.25 in6.4 mm
03:15 PM 34.9°F1.6°C 33.1°F0.6°C 93% 2.8 mph NW4.5 kmh NW 6.9 mph11.1 kmh 30.53 in1033.9 mb 0.07 in1.8 mm 0.00 in0.0 mm 0.24 in6.1 mm
03:10 PM 35.1°F1.7°C 33.2°F0.7°C 93% 2.8 mph NW4.5 kmh NW 5.4 mph8.7 kmh 30.53 in1033.9 mb 0.08 in2.0 mm 0.00 in0.0 mm 0.24 in6.1 mm
03:05 PM 35.1°F1.7°C 33.2°F0.7°C 93% 3.1 mph NNE5.0 kmh NNE 7.6 mph12.2 kmh 30.52 in1033.5 mb 0.08 in2.0 mm 0.00 in0.0 mm 0.22 in5.6 mm
03:00 PM 35.1°F1.7°C 33.3°F0.7°C 93% 3.9 mph NNW6.3 kmh NNW 8.3 mph13.4 kmh 30.52 in1033.5 mb 0.08 in2.0 mm 0.00 in0.0 mm 0.22 in5.6 mm
02:55 PM 35.2°F1.8°C 33.7°F0.9°C 94% 2.8 mph SE4.5 kmh SE 7.6 mph12.2 kmh 30.52 in1033.5 mb 0.08 in2.0 mm 0.00 in0.0 mm 0.21 in5.3 mm
02:50 PM 35.2°F1.8°C 33.7°F0.9°C 94% 2.8 mph NNE4.5 kmh NNE 5.4 mph8.7 kmh 30.52 in1033.5 mb 0.09 in2.3 mm 0.00 in0.0 mm 0.21 in5.3 mm
02:45 PM 35.2°F1.8°C 33.7°F0.9°C 94% 3.1 mph NE5.0 kmh NE 5.4 mph8.7 kmh 30.52 in1033.5 mb 0.09 in2.3 mm 0.12 in3.0 mm 0.21 in5.3 mm
02:40 PM 35.4°F1.9°C 33.9°F1.1°C 94% 1.6 mph NW2.6 kmh NW 3.1 mph5.0 kmh 30.51 in1033.2 mb 0.08 in2.0 mm 0.00 in0.0 mm 0.20 in5.1 mm
02:35 PM 35.4°F1.9°C 33.9°F1.1°C 94% 4.5 mph E7.2 kmh E 8.3 mph13.4 kmh 30.51 in1033.2 mb 0.08 in2.0 mm 0.00 in0.0 mm 0.19 in4.8 mm
02:30 PM 35.4°F1.9°C 33.9°F1.1°C 94% 4.5 mph 7.2 kmh 6.9 mph11.1 kmh 30.51 in1033.2 mb 0.09 in2.3 mm 0.00 in0.0 mm 0.19 in4.8 mm
02:25 PM 35.6°F2.0°C 33.8°F1.0°C 93% 2.2 mph NW3.5 kmh NW 5.4 mph8.7 kmh 30.51 in1033.2 mb 0.09 in2.3 mm 0.12 in3.0 mm 0.18 in4.6 mm
02:20 PM 35.8°F2.1°C 34.2°F1.2°C 94% 2.2 mph NE3.5 kmh NE 3.1 mph5.0 kmh 30.51 in1033.2 mb 0.08 in2.0 mm 0.00 in0.0 mm 0.17 in4.3 mm
02:15 PM 35.8°F2.1°C 34.2°F1.2°C 94% 3.8 mph SW6.1 kmh SW 6.9 mph11.1 kmh 30.51 in1033.2 mb 0.09 in2.3 mm 0.00 in0.0 mm 0.17 in4.3 mm
02:10 PM 35.6°F2.0°C 34.0°F1.1°C 94% 3.8 mph 6.1 kmh 6.0 mph9.7 kmh 30.51 in1033.2 mb 0.09 in2.3 mm 0.00 in0.0 mm 0.15 in3.8 mm
02:05 PM 35.6°F2.0°C 34.0°F1.1°C 94% 2.2 mph NE3.5 kmh NE 5.4 mph8.7 kmh 30.50 in1032.8 mb 0.09 in2.3 mm 0.00 in0.0 mm 0.14 in3.6 mm
02:00 PM 35.6°F2.0°C 34.0°F1.1°C 94% 2.2 mph NE3.5 kmh NE 5.4 mph8.7 kmh 30.50 in1032.8 mb 0.11 in2.8 mm 0.02 in0.5 mm 0.14 in3.6 mm
01:55 PM 35.6°F2.0°C 34.0°F1.1°C 94% 3.1 mph 5.0 kmh 5.4 mph8.7 kmh 30.50 in1032.8 mb 0.09 in2.3 mm 0.00 in0.0 mm 0.13 in3.3 mm
01:50 PM 35.6°F2.0°C 34.0°F1.1°C 94% 2.2 mph NE3.5 kmh NE 3.8 mph6.1 kmh 30.50 in1032.8 mb 0.11 in2.8 mm 0.00 in0.0 mm 0.12 in3.0 mm
01:45 PM 35.6°F2.0°C 34.0°F1.1°C 94% 2.2 mph 3.5 kmh 5.4 mph8.7 kmh 30.50 in1032.8 mb 0.12 in3.0 mm 0.00 in0.0 mm 0.12 in3.0 mm
01:40 PM 35.4°F1.9°C 34.1°F1.2°C 95% 2.0 mph NE3.2 kmh NE 4.5 mph7.2 kmh 30.50 in1032.8 mb 0.12 in3.0 mm 0.12 in3.0 mm 0.12 in3.0 mm
01:35 PM 35.4°F1.9°C 34.1°F1.2°C 95% 2.5 mph E4.0 kmh E 5.4 mph8.7 kmh 30.50 in1032.8 mb 0.11 in2.8 mm 0.24 in6.1 mm 0.11 in2.8 mm
01:30 PM 35.4°F1.9°C 34.1°F1.2°C 95% 1.6 mph NW2.6 kmh NW 5.4 mph8.7 kmh 30.50 in1032.8 mb 0.09 in2.3 mm 0.12 in3.0 mm 0.09 in2.3 mm
01:25 PM 35.3°F1.8°C 34.0°F1.1°C 95% 2.6 mph NE4.2 kmh NE 6.0 mph9.7 kmh 30.50 in1032.8 mb 0.08 in2.0 mm 0.00 in0.0 mm 0.08 in2.0 mm
01:20 PM 35.2°F1.8°C 33.9°F1.1°C 95% 2.8 mph WNW4.5 kmh WNW 8.3 mph13.4 kmh 30.50 in1032.8 mb 0.08 in2.0 mm 0.12 in3.0 mm 0.08 in2.0 mm
01:15 PM 35.1°F1.7°C 33.8°F1.0°C 95% 1.8 mph NNE2.9 kmh NNE 7.6 mph12.2 kmh 30.49 in1032.5 mb 0.07 in1.8 mm 0.12 in3.0 mm 0.07 in1.8 mm
01:10 PM 34.9°F1.6°C 33.7°F0.9°C 95% 2.4 mph NE3.9 kmh NE 7.6 mph12.2 kmh 30.49 in1032.5 mb 0.06 in1.5 mm 0.12 in3.0 mm 0.06 in1.5 mm
01:05 PM 34.9°F1.6°C 33.6°F0.9°C 95% 2.7 mph NNE4.3 kmh NNE 6.9 mph11.1 kmh 30.49 in1032.5 mb 0.05 in1.3 mm 0.12 in3.0 mm 0.05 in1.3 mm
01:00 PM 34.9°F1.6°C 33.6°F0.9°C 95% 2.8 mph NNW4.5 kmh NNW 5.4 mph8.7 kmh 30.49 in1032.5 mb 0.04 in1.0 mm 0.00 in0.0 mm 0.04 in1.0 mm
12:55 PM 34.9°F1.6°C 33.6°F0.9°C 95% 2.1 mph NNE3.4 kmh NNE 5.4 mph8.7 kmh 30.49 in1032.5 mb 0.04 in1.0 mm 0.36 in9.1 mm 0.04 in1.0 mm
12:50 PM 34.8°F1.6°C 33.6°F0.9°C 96% 2.9 mph NE4.7 kmh NE 6.9 mph11.1 kmh 30.49 in1032.5 mb 0.01 in0.3 mm 0.12 in3.0 mm 0.01 in0.3 mm
12:45 PM 34.7°F1.5°C 33.7°F0.9°C 96% 2.4 mph NE3.9 kmh NE 5.4 mph8.7 kmh 30.49 in1032.5 mb 0.00 in0.0 mm 0.00 in0.0 mm 0.00 in0.0 mm
12:40 PM 34.7°F1.5°C 33.7°F0.9°C 96% 1.9 mph N3.1 kmh N 3.8 mph6.1 kmh 30.49 in1032.5 mb 0.00 in0.0 mm 0.00 in0.0 mm 0.00 in0.0 mm
12:35 PM 34.7°F1.5°C 33.6°F0.9°C 96% 1.7 mph NNE2.7 kmh NNE 3.8 mph6.1 kmh 30.49 in1032.5 mb 0.00 in0.0 mm 0.00 in0.0 mm 0.00 in0.0 mm
12:30 PM 34.5°F1.4°C 33.5°F0.8°C 96% 1.3 mph N2.1 kmh N 3.1 mph5.0 kmh 30.49 in1032.5 mb 0.00 in0.0 mm 0.00 in0.0 mm 0.00 in0.0 mm
12:25 PM 34.5°F1.4°C 33.5°F0.8°C 96% 2.0 mph NNE3.2 kmh NNE 3.8 mph6.1 kmh 30.49 in1032.5 mb 0.00 in0.0 mm 0.00 in0.0 mm 0.00 in0.0 mm
12:20 PM 34.5°F1.4°C 33.5°F0.8°C 96% 1.5 mph NE2.4 kmh NE 3.8 mph6.1 kmh 30.48 in1032.2 mb 0.00 in0.0 mm 0.00 in0.0 mm 0.00 in0.0 mm
12:15 PM 34.5°F1.4°C 33.5°F0.8°C 96% 1.3 mph NNE2.1 kmh NNE 3.1 mph5.0 kmh 30.48 in1032.2 mb 0.00 in0.0 mm 0.00 in0.0 mm 0.00 in0.0 mm
12:10 PM 34.5°F1.4°C 33.5°F0.8°C 96% 1.6 mph NE2.6 kmh NE 3.1 mph5.0 kmh 30.49 in1032.5 mb 0.00 in0.0 mm 0.00 in0.0 mm 0.00 in0.0 mm
12:05 PM 34.5°F1.4°C 33.5°F0.8°C 96% 1.6 mph NE2.6 kmh NE 3.1 mph5.0 kmh 30.48 in1032.2 mb 0.00 in0.0 mm 0.00 in0.0 mm 0.00 in0.0 mm
12:00 PM 34.4°F1.3°C 33.4°F0.8°C 96% 2.1 mph NNE3.4 kmh NNE 4.5 mph7.2 kmh 30.48 in1032.2 mb 0.00 in0.0 mm 0.00 in0.0 mm 0.00 in0.0 mm
11:55 AM 34.3°F1.3°C 33.3°F0.7°C 96% 1.7 mph N2.7 kmh N 3.8 mph6.1 kmh 30.48 in1032.2 mb 0.00 in0.0 mm 0.00 in0.0 mm 0.00 in0.0 mm
11:50 AM 34.2°F1.2°C 33.2°F0.7°C 96% 1.0 mph N1.6 kmh N 3.1 mph5.0 kmh 30.48 in1032.2 mb 0.00 in0.0 mm 0.00 in0.0 mm 0.00 in0.0 mm
11:45 AM 34.2°F1.2°C 33.1°F0.6°C 96% 1.5 mph N2.4 kmh N 3.8 mph6.1 kmh 30.48 in1032.2 mb 0.00 in0.0 mm 0.00 in0.0 mm 0.00 in0.0 mm
11:40 AM 34.1°F1.2°C 33.1°F0.6°C 96% 0.8 mph N1.3 kmh N 3.1 mph5.0 kmh 30.48 in1032.2 mb 0.00 in0.0 mm 0.00 in0.0 mm 0.00 in0.0 mm
11:35 AM 33.9°F1.1°C 32.9°F0.5°C 96% 1.5 mph NNE2.4 kmh NNE 3.1 mph5.0 kmh 30.48 in1032.2 mb 0.00 in0.0 mm 0.00 in0.0 mm 0.00 in0.0 mm
11:30 AM 33.8°F1.0°C 32.8°F0.4°C 96% 1.1 mph N1.8 kmh N 3.1 mph5.0 kmh 30.48 in1032.2 mb 0.00 in0.0 mm 0.00 in0.0 mm 0.00 in0.0 mm
11:25 AM 33.7°F0.9°C 32.8°F0.4°C 96% 1.4 mph NNE2.3 kmh NNE 3.1 mph5.0 kmh 30.48 in1032.2 mb 0.00 in0.0 mm 0.00 in0.0 mm 0.00 in0.0 mm
11:20 AM 33.6°F0.9°C 32.9°F0.5°C 97% 2.0 mph NNE3.2 kmh NNE 3.8 mph6.1 kmh 30.48 in1032.2 mb 0.00 in0.0 mm 0.00 in0.0 mm 0.00 in0.0 mm
11:15 AM 33.6°F0.9°C 32.9°F0.5°C 97% 2.3 mph N3.7 kmh N 4.5 mph7.2 kmh 30.48 in1032.2 mb 0.00 in0.0 mm 0.00 in0.0 mm 0.00 in0.0 mm
11:10 AM 33.7°F0.9°C 32.8°F0.4°C 97% 2.3 mph NNE3.7 kmh NNE 4.5 mph7.2 kmh 30.48 in1032.2 mb 0.00 in0.0 mm 0.00 in0.0 mm 0.00 in0.0 mm
11:05 AM 33.6°F0.9°C 32.9°F0.5°C 97% 2.8 mph NE4.5 kmh NE 4.5 mph7.2 kmh 30.47 in1031.8 mb 0.00 in0.0 mm 0.00 in0.0 mm 0.00 in0.0 mm
11:00 AM 33.6°F0.9°C 32.9°F0.5°C 97% 3.6 mph NE5.8 kmh NE 5.4 mph8.7 kmh 30.47 in1031.8 mb 0.00 in0.0 mm 0.00 in0.0 mm 0.00 in0.0 mm
10:55 AM 33.6°F0.9°C 32.9°F0.5°C 97% 2.8 mph NE4.5 kmh NE 5.4 mph8.7 kmh 30.47 in1031.8 mb 0.00 in0.0 mm 0.00 in0.0 mm 0.00 in0.0 mm
10:50 AM 33.6°F0.9°C 32.9°F0.5°C 97% 2.4 mph NNE3.9 kmh NNE 3.8 mph6.1 kmh 30.47 in1031.8 mb 0.00 in0.0 mm 0.00 in0.0 mm 0.00 in0.0 mm
10:45 AM 33.8°F1.0°C 32.8°F0.4°C 96% 1.6 mph NE2.6 kmh NE 3.1 mph5.0 kmh 30.47 in1031.8 mb 0.00 in0.0 mm 0.00 in0.0 mm 0.00 in0.0 mm
10:40 AM 33.8°F1.0°C 32.8°F0.4°C 96% 1.7 mph NNE2.7 kmh NNE 3.1 mph5.0 kmh 30.47 in1031.8 mb 0.00 in0.0 mm 0.00 in0.0 mm 0.00 in0.0 mm
10:35 AM 33.8°F1.0°C 32.8°F0.4°C 96% 0.8 mph NNE1.3 kmh NNE 2.2 mph3.5 kmh 30.47 in1031.8 mb 0.00 in0.0 mm 0.00 in0.0 mm 0.00 in0.0 mm
10:30 AM 33.8°F1.0°C 32.8°F0.4°C 96% 0.2 mph NNE0.3 kmh NNE 2.2 mph3.5 kmh 30.47 in1031.8 mb 0.00 in0.0 mm 0.00 in0.0 mm 0.00 in0.0 mm
10:25 AM 33.8°F1.0°C 32.8°F0.4°C 96% Calm Calm -- 30.47 in1031.8 mb 0.00 in0.0 mm 0.00 in0.0 mm 0.00 in0.0 mm
10:20 AM 33.7°F0.9°C 32.8°F0.4°C 96% Calm Calm -- 30.47 in1031.8 mb 0.00 in0.0 mm 0.00 in0.0 mm 0.00 in0.0 mm
10:15 AM 33.6°F0.9°C 32.8°F0.4°C 97% Calm Calm -- 30.47 in1031.8 mb 0.00 in0.0 mm 0.00 in0.0 mm 0.00 in0.0 mm
10:10 AM 33.4°F0.8°C 32.7°F0.4°C 97% Calm Calm -- 30.47 in1031.8 mb 0.00 in0.0 mm 0.00 in0.0 mm 0.00 in0.0 mm
10:05 AM 33.4°F0.8°C 32.7°F0.4°C 97% Calm Calm -- 30.46 in1031.5 mb 0.00 in0.0 mm 0.00 in0.0 mm 0.00 in0.0 mm
10:00 AM 33.4°F0.8°C 32.7°F0.4°C 97% Calm Calm -- 30.46 in1031.5 mb 0.00 in0.0 mm 0.00 in0.0 mm 0.00 in0.0 mm
09:55 AM 33.4°F0.8°C 32.6°F0.3°C 97% 0.3 mph 0.5 kmh 3.8 mph6.1 kmh 30.46 in1031.5 mb 0.00 in0.0 mm 0.00 in0.0 mm 0.00 in0.0 mm
09:50 AM 33.3°F0.7°C 32.5°F0.3°C 97% Calm Calm 6.9 mph11.1 kmh 30.46 in1031.5 mb 0.00 in0.0 mm 0.00 in0.0 mm 0.00 in0.0 mm
09:45 AM 33.3°F0.7°C 32.5°F0.3°C 97% Calm Calm 1.6 mph2.6 kmh 30.45 in1031.2 mb 0.00 in0.0 mm 0.00 in0.0 mm 0.00 in0.0 mm
09:40 AM 33.3°F0.7°C 32.5°F0.3°C 97% 0.4 mph NNW0.6 kmh NNW 3.1 mph5.0 kmh 30.45 in1031.2 mb 0.00 in0.0 mm 0.00 in0.0 mm 0.00 in0.0 mm
09:35 AM 33.3°F0.7°C 32.5°F0.3°C 97% Calm Calm -- 30.45 in1031.2 mb 0.00 in0.0 mm 0.00 in0.0 mm 0.00 in0.0 mm
09:30 AM 33.3°F0.7°C 32.5°F0.3°C 97% Calm Calm 0.7 mph1.1 kmh 30.45 in1031.2 mb 0.00 in0.0 mm 0.00 in0.0 mm 0.00 in0.0 mm
09:25 AM 33.3°F0.7°C 32.5°F0.3°C 97% Calm Calm -- 30.45 in1031.2 mb 0.00 in0.0 mm 0.00 in0.0 mm 0.00 in0.0 mm
09:20 AM 33.1°F0.6°C 32.3°F0.2°C 97% Calm Calm -- 30.45 in1031.2 mb 0.00 in0.0 mm 0.00 in0.0 mm 0.00 in0.0 mm
09:15 AM 32.9°F0.5°C 32.0°F0.0°C 96% Calm Calm -- 30.44 in1030.8 mb 0.00 in0.0 mm 0.00 in0.0 mm 0.00 in0.0 mm
09:10 AM 32.9°F0.5°C 31.9°F-0.1°C 96% Calm Calm -- 30.44 in1030.8 mb 0.00 in0.0 mm 0.00 in0.0 mm 0.00 in0.0 mm
09:05 AM 32.8°F0.4°C 31.7°F-0.2°C 96% Calm Calm -- 30.44 in1030.8 mb 0.00 in0.0 mm 0.00 in0.0 mm 0.00 in0.0 mm
09:00 AM 32.7°F0.4°C 31.7°F-0.2°C 96% Calm Calm -- 30.44 in1030.8 mb 0.00 in0.0 mm 0.00 in0.0 mm 0.00 in0.0 mm
08:55 AM 32.7°F0.4°C 31.7°F-0.2°C 96% Calm Calm -- 30.44 in1030.8 mb 0.00 in0.0 mm 0.00 in0.0 mm 0.00 in0.0 mm
08:50 AM 32.7°F0.4°C 31.7°F-0.2°C 96% Calm Calm -- 30.44 in1030.8 mb 0.00 in0.0 mm 0.00 in0.0 mm 0.00 in0.0 mm
08:45 AM 32.7°F0.4°C 31.7°F-0.2°C 96% Calm Calm -- 30.43 in1030.5 mb 0.00 in0.0 mm 0.00 in0.0 mm 0.00 in0.0 mm
08:40 AM 32.8°F0.4°C 31.8°F-0.1°C 96% Calm Calm -- 30.43 in1030.5 mb 0.00 in0.0 mm 0.00 in0.0 mm 0.00 in0.0 mm
08:35 AM 32.9°F0.5°C 31.9°F-0.1°C 96% Calm Calm -- 30.43 in1030.5 mb 0.00 in0.0 mm 0.00 in0.0 mm 0.00 in0.0 mm
08:30 AM 32.9°F0.5°C 31.9°F-0.1°C 96% Calm Calm -- 30.43 in1030.5 mb 0.00 in0.0 mm 0.00 in0.0 mm 0.00 in0.0 mm
08:25 AM 33.0°F0.6°C 32.2°F0.1°C 97% Calm Calm -- 30.43 in1030.5 mb 0.00 in0.0 mm 0.00 in0.0 mm 0.00 in0.0 mm
08:20 AM 32.9°F0.5°C 32.1°F0.1°C 97% Calm Calm -- 30.43 in1030.5 mb 0.00 in0.0 mm 0.00 in0.0 mm 0.00 in0.0 mm
08:15 AM 32.8°F0.4°C 31.7°F-0.2°C 96% Calm Calm -- 30.43 in1030.5 mb 0.00 in0.0 mm 0.00 in0.0 mm 0.00 in0.0 mm
08:10 AM 32.3°F0.2°C 31.3°F-0.4°C 96% Calm Calm -- 30.43 in1030.5 mb 0.00 in0.0 mm 0.00 in0.0 mm 0.00 in0.0 mm
08:05 AM 32.2°F0.1°C 31.2°F-0.4°C 96% Calm Calm -- 30.43 in1030.5 mb 0.00 in0.0 mm 0.00 in0.0 mm 0.00 in0.0 mm
08:00 AM 32.2°F0.1°C 31.2°F-0.4°C 96% Calm Calm -- 30.42 in1030.1 mb 0.00 in0.0 mm 0.00 in0.0 mm 0.00 in0.0 mm
07:55 AM 32.2°F0.1°C 31.2°F-0.4°C 96% Calm Calm -- 30.42 in1030.1 mb 0.00 in0.0 mm 0.00 in0.0 mm 0.00 in0.0 mm
07:50 AM 32.2°F0.1°C 31.2°F-0.4°C 96% Calm Calm -- 30.42 in1030.1 mb 0.00 in0.0 mm 0.00 in0.0 mm 0.00 in0.0 mm
07:45 AM 32.2°F0.1°C 31.2°F-0.4°C 96% Calm Calm -- 30.42 in1030.1 mb 0.00 in0.0 mm 0.00 in0.0 mm 0.00 in0.0 mm
07:40 AM 32.2°F0.1°C 31.2°F-0.4°C 96% Calm Calm -- 30.42 in1030.1 mb 0.00 in0.0 mm 0.00 in0.0 mm 0.00 in0.0 mm
07:35 AM 32.2°F0.1°C 31.2°F-0.4°C 96% Calm Calm -- 30.41 in1029.8 mb 0.00 in0.0 mm 0.00 in0.0 mm 0.00 in0.0 mm
07:30 AM 32.2°F0.1°C 31.2°F-0.4°C 96% Calm Calm -- 30.41 in1029.8 mb 0.00 in0.0 mm 0.00 in0.0 mm 0.00 in0.0 mm
07:25 AM 32.2°F0.1°C 31.2°F-0.4°C 96% Calm Calm -- 30.41 in1029.8 mb 0.00 in0.0 mm 0.00 in0.0 mm 0.00 in0.0 mm
07:20 AM 32.1°F0.1°C 31.1°F-0.5°C 96% Calm Calm -- 30.41 in1029.8 mb 0.00 in0.0 mm 0.00 in0.0 mm 0.00 in0.0 mm
07:15 AM 32.0°F0.0°C 31.0°F-0.6°C 96% Calm Calm -- 30.41 in1029.8 mb 0.00 in0.0 mm 0.00 in0.0 mm 0.00 in0.0 mm
07:10 AM 32.0°F0.0°C 31.0°F-0.6°C 96% Calm Calm -- 30.40 in1029.5 mb 0.00 in0.0 mm 0.00 in0.0 mm 0.00 in0.0 mm
07:05 AM 32.0°F0.0°C 31.0°F-0.6°C 96% Calm Calm -- 30.40 in1029.5 mb 0.00 in0.0 mm 0.00 in0.0 mm 0.00 in0.0 mm
07:00 AM 32.0°F0.0°C 31.0°F-0.6°C 96% Calm Calm -- 30.40 in1029.5 mb 0.00 in0.0 mm 0.00 in0.0 mm 0.00 in0.0 mm
06:55 AM 32.0°F0.0°C 31.0°F-0.6°C 96% Calm Calm -- 30.40 in1029.5 mb 0.00 in0.0 mm 0.00 in0.0 mm 0.00 in0.0 mm
06:50 AM 31.8°F-0.1°C 31.1°F-0.5°C 97% Calm Calm -- 30.40 in1029.5 mb 0.00 in0.0 mm 0.00 in0.0 mm 0.00 in0.0 mm
06:45 AM 31.8°F-0.1°C 31.1°F-0.5°C 97% Calm Calm -- 30.40 in1029.5 mb 0.00 in0.0 mm 0.00 in0.0 mm 0.00 in0.0 mm
06:40 AM 31.8°F-0.1°C 31.1°F-0.5°C 97% Calm Calm -- 30.40 in1029.5 mb 0.00 in0.0 mm 0.00 in0.0 mm 0.00 in0.0 mm
06:35 AM 31.8°F-0.1°C 31.1°F-0.5°C 97% Calm Calm -- 30.39 in1029.1 mb 0.00 in0.0 mm 0.00 in0.0 mm 0.00 in0.0 mm
06:30 AM 31.7°F-0.2°C 31.0°F-0.6°C 97% Calm Calm -- 30.39 in1029.1 mb 0.00 in0.0 mm 0.00 in0.0 mm 0.00 in0.0 mm
06:25 AM 31.6°F-0.2°C 30.9°F-0.6°C 97% Calm Calm -- 30.39 in1029.1 mb 0.00 in0.0 mm 0.00 in0.0 mm 0.00 in0.0 mm
06:20 AM 31.6°F-0.2°C 30.9°F-0.6°C 97% Calm Calm -- 30.39 in1029.1 mb 0.00 in0.0 mm 0.00 in0.0 mm 0.00 in0.0 mm
06:15 AM 31.6°F-0.2°C 30.9°F-0.6°C 97% Calm Calm -- 30.39 in1029.1 mb 0.00 in0.0 mm 0.00 in0.0 mm 0.00 in0.0 mm
06:10 AM 31.6°F-0.2°C 30.8°F-0.7°C 97% Calm Calm -- 30.39 in1029.1 mb 0.00 in0.0 mm 0.00 in0.0 mm 0.00 in0.0 mm
06:05 AM 31.5°F-0.3°C 30.7°F-0.7°C 97% Calm Calm -- 30.39 in1029.1 mb 0.00 in0.0 mm 0.00 in0.0 mm 0.00 in0.0 mm
06:00 AM 31.4°F-0.3°C 30.7°F-0.7°C 97% Calm Calm -- 30.39 in1029.1 mb 0.00 in0.0 mm 0.00 in0.0 mm 0.00 in0.0 mm
05:55 AM 31.3°F-0.4°C 30.6°F-0.8°C 97% Calm Calm -- 30.39 in1029.1 mb 0.00 in0.0 mm 0.00 in0.0 mm 0.00 in0.0 mm
05:50 AM 31.3°F-0.4°C 30.5°F-0.8°C 97% Calm Calm -- 30.39 in1029.1 mb 0.00 in0.0 mm 0.00 in0.0 mm 0.00 in0.0 mm
05:45 AM 31.2°F-0.4°C 30.4°F-0.9°C 97% Calm Calm -- 30.38 in1028.8 mb 0.00 in0.0 mm 0.00 in0.0 mm 0.00 in0.0 mm
05:40 AM 31.1°F-0.5°C 30.3°F-0.9°C 97% Calm Calm -- 30.38 in1028.8 mb 0.00 in0.0 mm 0.00 in0.0 mm 0.00 in0.0 mm
05:35 AM 31.1°F-0.5°C 30.3°F-0.9°C 97% Calm Calm -- 30.38 in1028.8 mb 0.00 in0.0 mm 0.00 in0.0 mm 0.00 in0.0 mm
05:30 AM 30.9°F-0.6°C 30.2°F-1.0°C 97% Calm Calm -- 30.38 in1028.8 mb 0.00 in0.0 mm 0.00 in0.0 mm 0.00 in0.0 mm
05:25 AM 30.9°F-0.6°C 30.2°F-1.0°C 97% Calm Calm -- 30.38 in1028.8 mb 0.00 in0.0 mm 0.00 in0.0 mm 0.00 in0.0 mm
05:20 AM 30.7°F-0.7°C 30.0°F-1.1°C 97% Calm Calm -- 30.38 in1028.8 mb 0.00 in0.0 mm 0.00 in0.0 mm 0.00 in0.0 mm
05:15 AM 30.7°F-0.7°C 29.9°F-1.2°C 97% Calm Calm -- 30.37 in1028.4 mb 0.00 in0.0 mm 0.00 in0.0 mm 0.00 in0.0 mm
05:10 AM 30.6°F-0.8°C 29.8°F-1.2°C 97% Calm Calm -- 30.38 in1028.8 mb 0.00 in0.0 mm 0.00 in0.0 mm 0.00 in0.0 mm
05:05 AM 30.4°F-0.9°C 29.6°F-1.3°C 97% Calm Calm -- 30.38 in1028.8 mb 0.00 in0.0 mm 0.00 in0.0 mm 0.00 in0.0 mm
05:00 AM 30.2°F-1.0°C 29.2°F-1.6°C 96% Calm Calm -- 30.37 in1028.4 mb 0.00 in0.0 mm 0.00 in0.0 mm 0.00 in0.0 mm
04:55 AM 30.2°F-1.0°C 29.2°F-1.6°C 96% Calm Calm -- 30.37 in1028.4 mb 0.00 in0.0 mm 0.00 in0.0 mm 0.00 in0.0 mm
04:50 AM 30.2°F-1.0°C 29.2°F-1.6°C 96% Calm Calm -- 30.37 in1028.4 mb 0.00 in0.0 mm 0.00 in0.0 mm 0.00 in0.0 mm
04:45 AM 30.2°F-1.0°C 29.2°F-1.6°C 96% Calm Calm -- 30.37 in1028.4 mb 0.00 in0.0 mm 0.00 in0.0 mm 0.00 in0.0 mm
04:40 AM 30.2°F-1.0°C 29.2°F-1.6°C 96% Calm Calm -- 30.37 in1028.4 mb 0.00 in0.0 mm 0.00 in0.0 mm 0.00 in0.0 mm
04:35 AM 30.2°F-1.0°C 29.2°F-1.6°C 96% Calm Calm -- 30.37 in1028.4 mb 0.00 in0.0 mm 0.00 in0.0 mm 0.00 in0.0 mm
04:30 AM 30.2°F-1.0°C 29.2°F-1.6°C 96% Calm Calm -- 30.37 in1028.4 mb 0.00 in0.0 mm 0.00 in0.0 mm 0.00 in0.0 mm
04:25 AM 30.2°F-1.0°C 29.2°F-1.6°C 96% Calm Calm -- 30.37 in1028.4 mb 0.00 in0.0 mm 0.00 in0.0 mm 0.00 in0.0 mm
04:20 AM 30.2°F-1.0°C 29.2°F-1.6°C 96% Calm Calm -- 30.37 in1028.4 mb 0.00 in0.0 mm 0.00 in0.0 mm 0.00 in0.0 mm
04:15 AM 30.2°F-1.0°C 29.2°F-1.6°C 96% Calm Calm -- 30.36 in1028.1 mb 0.00 in0.0 mm 0.00 in0.0 mm 0.00 in0.0 mm
04:10 AM 30.1°F-1.1°C 29.2°F-1.6°C 97% Calm Calm -- 30.36 in1028.1 mb 0.00 in0.0 mm 0.00 in0.0 mm 0.00 in0.0 mm
04:05 AM 30.0°F-1.1°C 29.3°F-1.5°C 97% Calm Calm -- 30.36 in1028.1 mb 0.00 in0.0 mm 0.00 in0.0 mm 0.00 in0.0 mm
04:00 AM 30.0°F-1.1°C 29.3°F-1.5°C 97% Calm Calm -- 30.36 in1028.1 mb 0.00 in0.0 mm 0.00 in0.0 mm 0.00 in0.0 mm
03:55 AM 30.0°F-1.1°C 29.3°F-1.5°C 97% Calm Calm -- 30.36 in1028.1 mb 0.00 in0.0 mm 0.00 in0.0 mm 0.00 in0.0 mm
03:50 AM 30.0°F-1.1°C 29.3°F-1.5°C 97% Calm Calm -- 30.36 in1028.1 mb 0.00 in0.0 mm 0.00 in0.0 mm 0.00 in0.0 mm
03:45 AM 30.0°F-1.1°C 29.3°F-1.5°C 97% Calm Calm -- 30.36 in1028.1 mb 0.00 in0.0 mm 0.00 in0.0 mm 0.00 in0.0 mm
03:40 AM 30.0°F-1.1°C 29.3°F-1.5°C 97% Calm Calm -- 30.36 in1028.1 mb 0.00 in0.0 mm 0.00 in0.0 mm 0.00 in0.0 mm
03:35 AM 29.8°F-1.2°C 29.1°F-1.6°C 97% Calm Calm -- 30.36 in1028.1 mb 0.00 in0.0 mm 0.00 in0.0 mm 0.00 in0.0 mm
03:30 AM 29.8°F-1.2°C 29.1°F-1.6°C 97% Calm Calm -- 30.36 in1028.1 mb 0.00 in0.0 mm 0.00 in0.0 mm 0.00 in0.0 mm
03:25 AM 30.0°F-1.1°C 29.2°F-1.6°C 97% Calm Calm -- 30.36 in1028.1 mb 0.00 in0.0 mm 0.00 in0.0 mm 0.00 in0.0 mm
03:20 AM 30.0°F-1.1°C 29.3°F-1.5°C 97% Calm Calm -- 30.36 in1028.1 mb 0.00 in0.0 mm 0.00 in0.0 mm 0.00 in0.0 mm
03:15 AM 30.0°F-1.1°C 29.3°F-1.5°C 97% Calm Calm -- 30.36 in1028.1 mb 0.00 in0.0 mm 0.00 in0.0 mm 0.00 in0.0 mm
03:10 AM 30.0°F-1.1°C 29.3°F-1.5°C 97% Calm Calm -- 30.36 in1028.1 mb 0.00 in0.0 mm 0.00 in0.0 mm 0.00 in0.0 mm
03:05 AM 30.0°F-1.1°C 29.3°F-1.5°C 97% Calm Calm -- 30.36 in1028.1 mb 0.00 in0.0 mm 0.00 in0.0 mm 0.00 in0.0 mm
03:00 AM 30.0°F-1.1°C 29.3°F-1.5°C 97% Calm Calm -- 30.36 in1028.1 mb 0.00 in0.0 mm 0.00 in0.0 mm 0.00 in0.0 mm
02:55 AM 30.0°F-1.1°C 29.3°F-1.5°C 97% Calm Calm -- 30.36 in1028.1 mb 0.00 in0.0 mm 0.00 in0.0 mm 0.00 in0.0 mm
02:50 AM 29.9°F-1.2°C 29.3°F-1.5°C 98% Calm Calm -- 30.36 in1028.1 mb 0.00 in0.0 mm 0.00 in0.0 mm 0.00 in0.0 mm
02:45 AM 29.9°F-1.2°C 29.2°F-1.6°C 97% Calm Calm -- 30.36 in1028.1 mb 0.00 in0.0 mm 0.00 in0.0 mm 0.00 in0.0 mm
02:40 AM 29.8°F-1.2°C 29.1°F-1.6°C 97% Calm Calm -- 30.36 in1028.1 mb 0.00 in0.0 mm 0.00 in0.0 mm 0.00 in0.0 mm
02:35 AM 29.8°F-1.2°C 29.1°F-1.6°C 97% Calm Calm -- 30.36 in1028.1 mb 0.00 in0.0 mm 0.00 in0.0 mm 0.00 in0.0 mm
02:30 AM 29.8°F-1.2°C 29.1°F-1.6°C 97% Calm Calm -- 30.36 in1028.1 mb 0.00 in0.0 mm 0.00 in0.0 mm 0.00 in0.0 mm
02:25 AM 29.8°F-1.2°C 29.1°F-1.6°C 97% Calm Calm -- 30.35 in1027.8 mb 0.00 in0.0 mm 0.00 in0.0 mm 0.00 in0.0 mm
02:20 AM 29.8°F-1.2°C 29.3°F-1.5°C 98% Calm Calm -- 30.35 in1027.8 mb 0.00 in0.0 mm 0.00 in0.0 mm 0.00 in0.0 mm
02:15 AM 29.8°F-1.2°C 29.3°F-1.5°C 98% Calm Calm -- 30.36 in1028.1 mb 0.00 in0.0 mm 0.00 in0.0 mm 0.00 in0.0 mm
02:10 AM 29.8°F-1.2°C 29.3°F-1.5°C 98% Calm Calm -- 30.36 in1028.1 mb 0.00 in0.0 mm 0.00 in0.0 mm 0.00 in0.0 mm
02:05 AM 29.8°F-1.2°C 29.3°F-1.5°C 98% Calm Calm -- 30.35 in1027.8 mb 0.00 in0.0 mm 0.00 in0.0 mm 0.00 in0.0 mm
02:00 AM 29.9°F-1.2°C 29.4°F-1.4°C 98% Calm Calm -- 30.35 in1027.8 mb 0.00 in0.0 mm 0.00 in0.0 mm 0.00 in0.0 mm
01:55 AM 30.0°F-1.1°C 29.5°F-1.4°C 98% Calm Calm -- 30.35 in1027.8 mb 0.00 in0.0 mm 0.00 in0.0 mm 0.00 in0.0 mm
01:50 AM 30.0°F-1.1°C 29.5°F-1.4°C 98% Calm Calm -- 30.35 in1027.8 mb 0.00 in0.0 mm 0.00 in0.0 mm 0.00 in0.0 mm
01:45 AM 30.0°F-1.1°C 29.5°F-1.4°C 98% Calm Calm -- 30.35 in1027.8 mb 0.00 in0.0 mm 0.00 in0.0 mm 0.00 in0.0 mm
01:40 AM 30.0°F-1.1°C 29.5°F-1.4°C 98% Calm Calm -- 30.35 in1027.8 mb 0.00 in0.0 mm 0.00 in0.0 mm 0.00 in0.0 mm
01:35 AM 30.1°F-1.1°C 29.5°F-1.4°C 97% Calm Calm -- 30.35 in1027.8 mb 0.00 in0.0 mm 0.00 in0.0 mm 0.00 in0.0 mm
01:30 AM 30.0°F-1.1°C 29.5°F-1.4°C 98% Calm Calm -- 30.35 in1027.8 mb 0.00 in0.0 mm 0.00 in0.0 mm 0.00 in0.0 mm
01:25 AM 30.0°F-1.1°C 29.5°F-1.4°C 98% Calm Calm -- 30.35 in1027.8 mb 0.00 in0.0 mm 0.00 in0.0 mm 0.00 in0.0 mm
01:20 AM 30.0°F-1.1°C 29.5°F-1.4°C 98% Calm Calm -- 30.35 in1027.8 mb 0.00 in0.0 mm 0.00 in0.0 mm 0.00 in0.0 mm
01:15 AM 30.1°F-1.1°C 29.5°F-1.4°C 98% Calm Calm -- 30.35 in1027.8 mb 0.00 in0.0 mm 0.00 in0.0 mm 0.00 in0.0 mm
01:10 AM 30.2°F-1.0°C 29.5°F-1.4°C 97% Calm Calm -- 30.35 in1027.8 mb 0.00 in0.0 mm 0.00 in0.0 mm 0.00 in0.0 mm
01:05 AM 30.4°F-0.9°C 29.6°F-1.3°C 97% Calm Calm -- 30.35 in1027.8 mb 0.00 in0.0 mm 0.00 in0.0 mm 0.00 in0.0 mm
01:00 AM 30.6°F-0.8°C 29.8°F-1.2°C 97% Calm Calm -- 30.35 in1027.8 mb 0.00 in0.0 mm 0.00 in0.0 mm 0.00 in0.0 mm
12:55 AM 30.6°F-0.8°C 29.8°F-1.2°C 97% Calm Calm -- 30.34 in1027.4 mb 0.00 in0.0 mm 0.00 in0.0 mm 0.00 in0.0 mm
12:50 AM 30.6°F-0.8°C 29.8°F-1.2°C 97% Calm Calm -- 30.34 in1027.4 mb 0.00 in0.0 mm 0.00 in0.0 mm 0.00 in0.0 mm
12:45 AM 30.6°F-0.8°C 29.8°F-1.2°C 97% Calm Calm -- 30.34 in1027.4 mb 0.00 in0.0 mm 0.00 in0.0 mm 0.00 in0.0 mm
12:40 AM 30.6°F-0.8°C 29.8°F-1.2°C 97% Calm Calm -- 30.34 in1027.4 mb 0.00 in0.0 mm 0.00 in0.0 mm 0.00 in0.0 mm
12:35 AM 30.5°F-0.8°C 29.7°F-1.3°C 97% Calm Calm -- 30.34 in1027.4 mb 0.00 in0.0 mm 0.00 in0.0 mm 0.00 in0.0 mm
12:30 AM 30.4°F-0.9°C 29.6°F-1.3°C 97% Calm Calm -- 30.34 in1027.4 mb 0.00 in0.0 mm 0.00 in0.0 mm 0.00 in0.0 mm
12:25 AM 30.4°F-0.9°C 29.6°F-1.3°C 97% Calm Calm -- 30.34 in1027.4 mb 0.00 in0.0 mm 0.00 in0.0 mm 0.00 in0.0 mm
12:20 AM 30.2°F-1.0°C 29.5°F-1.4°C 97% Calm Calm -- 30.34 in1027.4 mb 0.00 in0.0 mm 0.00 in0.0 mm 0.00 in0.0 mm
12:15 AM 30.2°F-1.0°C 29.5°F-1.4°C 97% Calm Calm -- 30.34 in1027.4 mb 0.00 in0.0 mm 0.00 in0.0 mm 0.00 in0.0 mm
12:10 AM 30.1°F-1.1°C 29.5°F-1.4°C 98% Calm Calm -- 30.35 in1027.8 mb 0.00 in0.0 mm 0.00 in0.0 mm 0.00 in0.0 mm
12:05 AM 30.0°F-1.1°C 29.5°F-1.4°C 98% Calm Calm -- 30.34 in1027.4 mb 0.00 in0.0 mm 0.00 in0.0 mm 0.00 in0.0 mm
12:00 AM 30.0°F-1.1°C 29.5°F-1.4°C 98% Calm Calm -- 30.35 in1027.8 mb 0.00 in0.0 mm 0.00 in0.0 mm 0.00 in0.0 mm